createdAt,value
2022-11-29T00:00:19.542Z,10.60
2022-11-29T00:02:49.032Z,10.23
2022-11-29T00:05:18.617Z,9.35
2022-11-29T00:07:48.128Z,10.10
2022-11-29T00:10:20.622Z,8.65
2022-11-29T00:12:50.178Z,9.65
2022-11-29T00:15:19.745Z,9.02
2022-11-29T00:17:49.226Z,10.10
2022-11-29T00:20:18.689Z,9.68
2022-11-29T00:22:48.301Z,9.93
2022-11-29T00:25:20.580Z,10.25
2022-11-29T00:27:51.445Z,10.02
2022-11-29T00:30:21.136Z,10.60
2022-11-29T00:32:50.582Z,9.90
2022-11-29T00:35:20.124Z,9.07
2022-11-29T00:37:49.613Z,9.52
2022-11-29T00:40:21.789Z,10.40
2022-11-29T00:42:51.269Z,9.88
2022-11-29T00:45:20.734Z,10.65
2022-11-29T00:47:50.254Z,11.45
2022-11-29T00:50:19.867Z,9.65
2022-11-29T00:52:49.638Z,11.05
2022-11-29T00:55:21.833Z,9.40
2022-11-29T00:57:51.338Z,9.48
2022-11-29T01:00:20.979Z,9.80
2022-11-29T01:02:50.536Z,9.23
2022-11-29T01:05:20.020Z,9.43
2022-11-29T01:07:49.566Z,10.13
2022-11-29T01:10:21.737Z,10.02
2022-11-29T01:12:51.605Z,9.52
2022-11-29T01:15:21.063Z,10.60
2022-11-29T01:17:50.549Z,8.75
2022-11-29T01:20:20.042Z,9.40
2022-11-29T01:22:49.563Z,9.65
2022-11-29T01:25:21.700Z,9.15
2022-11-29T01:27:51.212Z,8.88
2022-11-29T01:30:20.748Z,9.15
2022-11-29T01:32:50.314Z,8.95
2022-11-29T01:35:19.806Z,9.63
2022-11-29T01:37:49.332Z,9.70
2022-11-29T01:40:21.434Z,9.45
2022-11-29T01:42:50.952Z,9.65
2022-11-29T01:45:24.446Z,9.18
2022-11-29T01:47:55.574Z,8.98
2022-11-29T01:50:25.406Z,8.82
2022-11-29T01:52:55.078Z,9.93
2022-11-29T01:55:27.292Z,8.80
2022-11-29T01:57:57.139Z,9.35
2022-11-29T02:00:26.614Z,9.65
2022-11-29T02:02:58.399Z,9.82
2022-11-29T02:05:28.358Z,8.38
2022-11-29T02:07:59.175Z,8.85
2022-11-29T02:10:35.153Z,8.57
2022-11-29T02:13:08.055Z,8.02
2022-11-29T02:15:42.258Z,9.02
2022-11-29T02:18:14.868Z,9.07
2022-11-29T02:21:05.239Z,8.98
2022-11-29T02:23:52.707Z,9.10
2022-11-29T02:26:35.210Z,9.20
2022-11-29T02:29:29.371Z,8.68
2022-11-29T02:32:10.803Z,8.55
2022-11-29T02:34:58.328Z,8.35
2022-11-29T02:37:51.502Z,9.13
2022-11-29T02:40:37.330Z,8.43
2022-11-29T02:43:30.154Z,9.43
2022-11-29T02:46:06.078Z,8.82
2022-11-29T02:48:49.394Z,8.65
2022-11-29T02:51:23.986Z,8.57
2022-11-29T02:53:56.198Z,8.82
2022-11-29T02:56:32.557Z,9.50
2022-11-29T02:59:06.412Z,8.13
2022-11-29T03:01:37.867Z,8.63
2022-11-29T03:04:10.291Z,9.27
2022-11-29T03:06:42.660Z,8.65
2022-11-29T03:09:15.214Z,8.43
2022-11-29T03:11:50.856Z,8.85
2022-11-29T03:14:25.562Z,7.50
2022-11-29T03:17:02.593Z,7.90
2022-11-29T03:19:43.241Z,8.45
2022-11-29T03:22:24.932Z,8.85
2022-11-29T03:24:57.493Z,8.80
2022-11-29T03:27:32.962Z,7.28
2022-11-29T03:30:04.536Z,8.77
2022-11-29T03:32:37.854Z,8.70
2022-11-29T03:35:10.735Z,8.27
2022-11-29T03:37:44.725Z,7.82
2022-11-29T03:40:20.744Z,8.35
2022-11-29T03:42:54.491Z,9.07
2022-11-29T03:45:26.502Z,8.05
2022-11-29T03:47:58.968Z,8.15
2022-11-29T03:50:29.963Z,8.75
2022-11-29T03:53:02.820Z,8.45
2022-11-29T03:55:34.895Z,8.98
2022-11-29T03:58:16.196Z,8.13
2022-11-29T04:00:54.889Z,8.80
2022-11-29T04:03:35.033Z,7.93
2022-11-29T04:06:14.219Z,8.38
2022-11-29T04:08:58.901Z,8.65
2022-11-29T04:11:58.995Z,8.10
2022-11-29T04:14:43.624Z,8.48
2022-11-29T04:17:36.800Z,7.82
2022-11-29T04:20:12.161Z,8.07
2022-11-29T04:22:59.221Z,8.43
2022-11-29T04:25:41.487Z,7.95
2022-11-29T04:28:22.034Z,8.80
2022-11-29T04:30:59.744Z,8.32
2022-11-29T04:33:42.593Z,7.85
2022-11-29T04:36:29.248Z,8.10
2022-11-29T04:39:10.762Z,8.48
2022-11-29T04:42:03.954Z,7.68
2022-11-29T04:44:43.930Z,7.78
2022-11-29T04:47:34.750Z,7.95
2022-11-29T04:50:14.755Z,9.00
2022-11-29T04:52:50.501Z,8.75
2022-11-29T04:55:30.641Z,8.98
2022-11-29T04:58:03.632Z,8.35
2022-11-29T05:00:35.856Z,7.63
2022-11-29T05:03:10.126Z,9.15
2022-11-29T05:05:44.049Z,8.68
2022-11-29T05:08:22.630Z,8.38
2022-11-29T05:10:55.266Z,8.73
2022-11-29T05:13:30.107Z,8.68
2022-11-29T05:16:12.153Z,8.90
2022-11-29T05:18:55.484Z,7.75
2022-11-29T05:21:30.720Z,8.70
2022-11-29T05:24:03.387Z,7.57
2022-11-29T05:26:35.730Z,8.73
2022-11-29T05:29:07.700Z,8.23
2022-11-29T05:31:52.022Z,9.30
2022-11-29T05:34:34.486Z,8.52
2022-11-29T05:37:11.174Z,8.05
2022-11-29T05:39:44.977Z,6.97
2022-11-29T05:42:33.174Z,8.63
2022-11-29T05:45:05.772Z,11.95
2022-11-29T05:47:42.722Z,9.20
2022-11-29T05:50:15.162Z,8.85
2022-11-29T05:52:51.146Z,9.02
2022-11-29T05:55:25.666Z,8.30
2022-11-29T05:57:58.380Z,8.57
2022-11-29T06:00:30.032Z,8.30
2022-11-29T06:03:03.756Z,8.02
2022-11-29T06:05:37.172Z,8.52
2022-11-29T06:08:13.454Z,8.93
2022-11-29T06:10:55.146Z,8.75
2022-11-29T06:13:31.051Z,8.38
2022-11-29T06:16:14.448Z,8.60
2022-11-29T06:18:59.338Z,8.75
2022-11-29T06:21:33.462Z,7.97
2022-11-29T06:24:24.908Z,7.30
2022-11-29T06:27:03.921Z,8.50
2022-11-29T06:29:39.713Z,8.32
2022-11-29T06:32:17.283Z,8.25
2022-11-29T06:34:51.870Z,8.85
2022-11-29T06:37:24.852Z,8.60
2022-11-29T06:39:57.586Z,8.15
2022-11-29T06:42:27.233Z,9.00
2022-11-29T06:44:57.129Z,8.57
2022-11-29T06:47:30.828Z,9.32
2022-11-29T06:50:02.038Z,9.00
2022-11-29T06:52:37.725Z,8.43
2022-11-29T06:55:13.445Z,7.88
2022-11-29T06:57:50.136Z,8.75
2022-11-29T07:00:22.471Z,8.38
2022-11-29T07:02:58.279Z,8.13
2022-11-29T07:05:30.350Z,9.48
2022-11-29T07:08:02.425Z,9.38
2022-11-29T07:10:36.188Z,7.63
2022-11-29T07:13:06.197Z,8.45
2022-11-29T07:15:36.181Z,8.45
2022-11-29T07:18:14.947Z,8.50
2022-11-29T07:20:50.230Z,8.15
2022-11-29T07:23:24.818Z,8.25
2022-11-29T07:26:00.989Z,8.20
2022-11-29T07:28:37.230Z,8.57
2022-11-29T07:31:09.098Z,8.18
2022-11-29T07:33:45.143Z,8.35
2022-11-29T07:36:18.049Z,8.43
2022-11-29T07:38:53.679Z,8.40
2022-11-29T07:41:30.361Z,7.85
2022-11-29T07:44:04.159Z,7.80
2022-11-29T07:46:33.698Z,8.07
2022-11-29T07:49:03.270Z,8.30
2022-11-29T07:51:34.010Z,9.07
2022-11-29T07:54:03.608Z,8.40
2022-11-29T07:56:35.736Z,8.52
2022-11-29T07:59:05.320Z,9.45
2022-11-29T08:01:34.824Z,8.93
2022-11-29T08:04:04.560Z,9.40
2022-11-29T08:06:34.035Z,8.82
2022-11-29T08:09:03.891Z,8.90
2022-11-29T08:11:36.012Z,8.32
2022-11-29T08:14:07.175Z,8.53
2022-11-29T08:16:36.936Z,7.50
2022-11-29T08:19:06.440Z,8.38
2022-11-29T08:21:35.869Z,8.98
2022-11-29T08:24:05.478Z,8.57
2022-11-29T08:26:37.548Z,8.40
2022-11-29T08:29:07.102Z,8.02
2022-11-29T08:31:36.662Z,7.95
2022-11-29T08:34:08.083Z,8.43
2022-11-29T08:36:37.652Z,8.82
2022-11-29T08:39:09.495Z,7.85
2022-11-29T08:41:41.755Z,7.68
2022-11-29T08:44:11.379Z,7.22
2022-11-29T08:46:53.279Z,7.47
2022-11-29T08:49:22.835Z,7.90
2022-11-29T08:52:13.779Z,7.97
2022-11-29T08:54:40.823Z,7.35
2022-11-29T09:00:02.456Z,7.60
2022-11-29T09:02:31.953Z,7.75
2022-11-29T09:05:01.468Z,7.25
2022-11-29T09:07:31.118Z,7.13
2022-11-29T09:10:04.981Z,7.90
2022-11-29T09:12:37.715Z,8.13
2022-11-29T09:15:08.031Z,7.43
2022-11-29T09:17:37.541Z,7.35
2022-11-29T09:20:08.083Z,7.82
2022-11-29T09:22:37.605Z,7.57
2022-11-29T09:25:07.442Z,7.82
2022-11-29T09:27:41.788Z,5.88
2022-11-29T09:30:11.794Z,7.22
2022-11-29T09:32:41.240Z,7.57
2022-11-29T09:35:11.071Z,6.70
2022-11-29T09:37:40.630Z,6.68
2022-11-29T09:40:11.159Z,7.47
2022-11-29T09:42:49.112Z,6.13
2022-11-29T09:45:21.157Z,6.40
2022-11-29T09:48:05.643Z,6.07
2022-11-29T09:50:36.945Z,6.82
2022-11-29T09:53:21.879Z,6.85
2022-11-29T09:56:01.137Z,6.70
2022-11-29T09:58:37.146Z,7.10
2022-11-29T10:01:09.165Z,7.40
2022-11-29T10:03:41.469Z,6.47
2022-11-29T10:06:14.690Z,6.75
2022-11-29T10:08:46.795Z,7.95
2022-11-29T10:11:20.807Z,7.95
2022-11-29T10:13:54.904Z,7.03
2022-11-29T10:16:28.426Z,7.38
2022-11-29T10:19:01.352Z,6.57
2022-11-29T10:21:32.468Z,7.25
2022-11-29T10:24:04.341Z,6.88
2022-11-29T10:26:35.465Z,6.82
2022-11-29T10:29:07.810Z,5.95
2022-11-29T10:31:40.275Z,7.03
2022-11-29T10:34:15.308Z,6.28
2022-11-29T10:36:45.990Z,7.72
2022-11-29T10:39:18.047Z,6.35
2022-11-29T10:41:47.634Z,7.00
2022-11-29T10:44:20.699Z,7.40
2022-11-29T10:46:50.295Z,6.70
2022-11-29T10:49:21.867Z,7.03
2022-11-29T10:51:51.418Z,6.28
2022-11-29T10:54:25.864Z,6.15
2022-11-29T10:56:55.411Z,6.90
2022-11-29T10:59:28.140Z,7.10
2022-11-29T11:01:58.056Z,6.22
2022-11-29T11:04:32.233Z,5.93
2022-11-29T11:07:02.831Z,6.82
2022-11-29T11:09:34.551Z,6.05
2022-11-29T11:12:05.444Z,6.47
2022-11-29T11:14:38.807Z,6.82
2022-11-29T11:17:18.667Z,6.32
2022-11-29T11:19:56.438Z,6.82
2022-11-29T11:22:26.556Z,6.53
2022-11-29T11:25:01.228Z,6.70
2022-11-29T11:27:31.940Z,6.75
2022-11-29T11:30:04.764Z,6.90
2022-11-29T11:32:34.444Z,7.30
2022-11-29T11:35:04.921Z,6.55
2022-11-29T11:37:35.832Z,6.70
2022-11-29T11:40:21.848Z,5.50
2022-11-29T11:42:51.632Z,7.47
2022-11-29T11:45:35.182Z,7.03
2022-11-29T11:48:06.776Z,6.28
2022-11-29T11:50:37.387Z,7.43
2022-11-29T11:53:08.464Z,7.47
2022-11-29T11:55:40.013Z,6.45
2022-11-29T11:58:17.350Z,6.85
2022-11-29T12:01:06.872Z,6.18
2022-11-29T12:03:43.522Z,7.05
2022-11-29T12:06:30.882Z,7.40
2022-11-29T12:09:03.689Z,6.72
2022-11-29T12:11:36.743Z,6.78
2022-11-29T12:14:08.256Z,7.03
2022-11-29T12:16:41.927Z,7.30
2022-11-29T12:19:17.427Z,7.60
2022-11-29T12:21:49.405Z,6.70
2022-11-29T12:24:23.888Z,7.88
2022-11-29T12:26:57.866Z,6.15
2022-11-29T12:29:29.097Z,7.20
2022-11-29T12:32:07.188Z,7.43
2022-11-29T12:34:52.844Z,7.03
2022-11-29T12:37:24.565Z,7.05
2022-11-29T12:40:04.032Z,6.38
2022-11-29T12:42:41.086Z,6.63
2022-11-29T12:45:22.926Z,6.53
2022-11-29T12:47:59.047Z,6.30
2022-11-29T12:50:33.655Z,6.78
2022-11-29T12:53:09.815Z,6.45
2022-11-29T12:55:44.275Z,7.15
2022-11-29T12:58:16.875Z,6.55
2022-11-29T13:00:48.497Z,6.82
2022-11-29T13:03:23.392Z,7.40
2022-11-29T13:05:58.463Z,7.63
2022-11-29T13:08:44.080Z,7.38
2022-11-29T13:11:15.693Z,7.22
2022-11-29T13:13:46.117Z,6.82
2022-11-29T13:16:31.308Z,7.70
2022-11-29T13:19:08.662Z,6.75
2022-11-29T13:21:40.040Z,7.47
2022-11-29T13:24:12.426Z,7.47
2022-11-29T13:26:42.981Z,7.88
2022-11-29T13:29:15.347Z,7.45
2022-11-29T13:31:45.315Z,7.32
2022-11-29T13:34:19.269Z,6.90
2022-11-29T13:36:53.652Z,6.70
2022-11-29T13:39:31.067Z,6.57
2022-11-29T13:42:06.819Z,6.38
2022-11-29T13:44:38.271Z,6.53
2022-11-29T13:47:09.500Z,6.90
2022-11-29T13:50:02.700Z,6.88
2022-11-29T13:52:41.979Z,6.78
2022-11-29T13:55:33.143Z,6.75
2022-11-29T13:58:22.244Z,6.70
2022-11-29T14:00:52.522Z,6.53
2022-11-29T14:03:23.467Z,6.65
2022-11-29T14:05:57.036Z,7.15
2022-11-29T14:08:34.113Z,6.97
2022-11-29T14:11:25.697Z,6.72
2022-11-29T14:13:57.043Z,6.07
2022-11-29T14:16:30.597Z,7.18
2022-11-29T14:19:23.391Z,6.60
2022-11-29T14:22:07.887Z,6.63
2022-11-29T14:24:46.317Z,6.68
2022-11-29T14:27:33.508Z,7.25
2022-11-29T14:30:03.124Z,6.68
2022-11-29T14:32:35.472Z,6.93
2022-11-29T14:35:09.165Z,6.60
2022-11-29T14:37:47.206Z,7.47
2022-11-29T14:40:31.496Z,8.30
2022-11-29T14:43:01.156Z,7.78
2022-11-29T14:45:31.452Z,8.07
2022-11-29T14:48:01.752Z,7.47
2022-11-29T14:50:35.396Z,7.20
2022-11-29T14:53:05.131Z,7.13
2022-11-29T14:55:38.832Z,6.65
2022-11-29T14:58:18.031Z,6.93
2022-11-29T15:01:09.595Z,6.90
2022-11-29T15:03:46.700Z,7.03
2022-11-29T15:06:19.201Z,6.60
2022-11-29T15:08:53.484Z,7.57
2022-11-29T15:11:33.072Z,7.10
2022-11-29T15:14:07.107Z,6.65
2022-11-29T15:16:45.377Z,6.45
2022-11-29T15:19:32.615Z,6.40
2022-11-29T15:22:07.675Z,6.65
2022-11-29T15:24:52.100Z,6.72
2022-11-29T15:27:24.547Z,6.28
2022-11-29T15:29:54.411Z,6.57
2022-11-29T15:32:26.175Z,7.00
2022-11-29T15:34:56.571Z,6.22
2022-11-29T15:37:27.017Z,5.90
2022-11-29T15:40:07.250Z,6.30
2022-11-29T15:42:44.157Z,8.07
2022-11-29T15:45:31.429Z,7.00
2022-11-29T15:48:15.844Z,6.32
2022-11-29T15:50:48.554Z,11.00
2022-11-29T15:53:19.962Z,15.35
2022-11-29T15:55:50.624Z,10.95
2022-11-29T15:58:23.448Z,9.43
2022-11-29T16:00:53.756Z,7.55
2022-11-29T16:03:26.633Z,9.43
2022-11-29T16:06:01.284Z,8.35
2022-11-29T16:08:32.695Z,8.93
2022-11-29T16:11:02.777Z,8.25
2022-11-29T16:13:39.623Z,7.72
2022-11-29T16:16:11.792Z,7.75
2022-11-29T16:18:42.566Z,8.43
2022-11-29T16:21:24.324Z,7.30
2022-11-29T16:23:54.169Z,7.30
2022-11-29T16:26:25.547Z,6.67
2022-11-29T16:28:59.191Z,6.43
2022-11-29T16:31:34.011Z,6.65
2022-11-29T16:34:09.369Z,7.07
2022-11-29T16:36:38.880Z,6.53
2022-11-29T16:39:09.595Z,7.05
2022-11-29T16:41:39.935Z,6.63
2022-11-29T16:44:32.005Z,7.88
2022-11-29T16:47:13.651Z,7.00
2022-11-29T16:49:43.248Z,7.80
2022-11-29T16:52:25.576Z,6.95
2022-11-29T16:54:55.218Z,7.13
2022-11-29T16:57:24.921Z,6.55
2022-11-29T16:59:57.197Z,6.53
2022-11-29T17:02:26.777Z,7.28
2022-11-29T17:04:56.683Z,6.22
2022-11-29T17:07:28.693Z,6.65
2022-11-29T17:09:58.889Z,5.95
2022-11-29T17:12:28.351Z,6.13
2022-11-29T17:15:01.094Z,5.65
2022-11-29T17:17:30.883Z,5.85
2022-11-29T17:20:00.352Z,6.60
2022-11-29T17:22:29.947Z,6.22
2022-11-29T17:24:59.493Z,6.43
2022-11-29T17:27:28.949Z,6.53
2022-11-29T17:30:01.140Z,6.55
2022-11-29T17:32:30.685Z,6.18
2022-11-29T17:35:00.174Z,6.70
2022-11-29T17:37:31.055Z,7.25
2022-11-29T17:40:00.636Z,6.55
2022-11-29T17:42:30.130Z,6.13
2022-11-29T17:45:02.256Z,6.88
2022-11-29T17:47:31.797Z,6.03
2022-11-29T17:50:01.315Z,6.22
2022-11-29T17:52:30.922Z,6.18
2022-11-29T17:55:00.446Z,5.38
2022-11-29T17:57:30.018Z,5.38
2022-11-29T18:00:04.326Z,5.85
2022-11-29T18:02:34.977Z,5.90
2022-11-29T18:05:04.614Z,6.78
2022-11-29T18:07:34.086Z,6.65
2022-11-29T18:10:03.708Z,6.22
2022-11-29T18:12:33.269Z,6.07
2022-11-29T18:15:05.399Z,5.63
2022-11-29T18:17:34.955Z,6.22
2022-11-29T18:20:04.493Z,6.78
2022-11-29T18:22:34.019Z,5.97
2022-11-29T18:25:30.709Z,6.80
2022-11-29T18:27:53.026Z,7.45
2022-11-29T18:30:25.261Z,7.22
2022-11-29T18:32:54.718Z,6.72
2022-11-29T18:35:24.182Z,6.25
2022-11-29T18:40:45.094Z,7.72
2022-11-29T18:43:14.638Z,6.93
2022-11-29T18:45:46.777Z,6.32
2022-11-29T18:48:16.368Z,6.35
2022-11-29T18:50:45.795Z,6.70
2022-11-29T18:53:15.540Z,6.55
2022-11-29T18:55:45.019Z,5.75
2022-11-29T18:58:14.531Z,5.85
2022-11-29T19:00:46.903Z,6.18
2022-11-29T19:03:16.375Z,6.72
2022-11-29T19:05:52.247Z,6.25
2022-11-29T19:08:21.729Z,5.93
2022-11-29T19:10:51.318Z,6.80
2022-11-29T19:13:20.870Z,7.50
2022-11-29T19:15:56.877Z,7.72
2022-11-29T19:18:26.506Z,7.18
2022-11-29T19:20:56.043Z,8.38
2022-11-29T19:23:25.540Z,7.13
2022-11-29T19:25:55.024Z,6.80
2022-11-29T19:28:24.499Z,6.03
2022-11-29T19:30:59.305Z,6.47
2022-11-29T19:33:28.776Z,6.50
2022-11-29T19:35:58.270Z,5.03
2022-11-29T19:38:27.810Z,6.00
2022-11-29T19:40:57.333Z,6.38
2022-11-29T19:43:26.875Z,5.68
2022-11-29T19:45:58.978Z,6.00
2022-11-29T19:48:28.580Z,6.28
2022-11-29T19:50:58.063Z,5.93
2022-11-29T19:53:27.671Z,5.93
2022-11-29T19:55:57.125Z,6.15
2022-11-29T19:58:26.845Z,5.72
2022-11-29T20:00:58.959Z,5.93
2022-11-29T20:03:28.508Z,5.95
2022-11-29T20:05:58.363Z,6.10
2022-11-29T20:08:27.997Z,6.22
2022-11-29T20:10:57.621Z,5.82
2022-11-29T20:13:27.111Z,6.53
2022-11-29T20:16:03.496Z,5.68
2022-11-29T20:18:33.760Z,6.63
2022-11-29T20:21:07.710Z,5.85
2022-11-29T20:23:37.661Z,5.95
2022-11-29T20:26:08.211Z,6.47
2022-11-29T20:28:38.056Z,7.28
2022-11-29T20:31:11.245Z,5.57
2022-11-29T20:33:40.939Z,6.18
2022-11-29T20:36:16.139Z,6.05
2022-11-29T20:38:46.989Z,5.88
2022-11-29T20:41:19.542Z,6.28
2022-11-29T20:43:53.217Z,6.07
2022-11-29T20:46:25.954Z,5.82
2022-11-29T20:48:55.923Z,5.88
2022-11-29T20:51:28.238Z,6.97
2022-11-29T20:53:58.724Z,6.68
2022-11-29T20:56:30.450Z,6.65
2022-11-29T20:58:59.963Z,6.60
2022-11-29T21:01:32.128Z,6.88
2022-11-29T21:04:01.779Z,6.30
2022-11-29T21:06:31.346Z,6.18
2022-11-29T21:09:00.896Z,6.75
2022-11-29T21:11:30.590Z,6.32
2022-11-29T21:14:03.599Z,6.03
2022-11-29T21:16:36.090Z,5.97
2022-11-29T21:19:06.158Z,5.97
2022-11-29T21:21:37.746Z,6.53
2022-11-29T21:24:12.762Z,5.75
2022-11-29T21:26:44.597Z,5.97
2022-11-29T21:29:18.275Z,5.25
2022-11-29T21:31:51.270Z,5.43
2022-11-29T21:34:21.109Z,6.00
2022-11-29T21:36:51.828Z,5.47
2022-11-29T21:39:25.468Z,5.75
2022-11-29T21:41:54.949Z,5.05
2022-11-29T21:44:24.541Z,5.05
2022-11-29T21:46:56.769Z,4.93
2022-11-29T21:49:26.323Z,6.25
2022-11-29T21:51:57.594Z,5.75
2022-11-29T21:54:27.196Z,5.05
2022-11-29T21:56:56.744Z,5.05
2022-11-29T21:59:28.164Z,5.35
2022-11-29T22:02:00.871Z,5.22
2022-11-29T22:04:30.733Z,4.15
2022-11-29T22:07:00.221Z,5.45
2022-11-29T22:09:29.781Z,5.30
2022-11-29T22:11:59.469Z,4.97
2022-11-29T22:14:28.924Z,4.75
2022-11-29T22:17:01.764Z,4.75
2022-11-29T22:19:32.450Z,5.30
2022-11-29T22:22:02.634Z,5.32
2022-11-29T22:24:33.242Z,4.97
2022-11-29T22:27:02.770Z,4.97
2022-11-29T22:29:35.256Z,4.65
2022-11-29T22:32:07.644Z,4.78
2022-11-29T22:34:37.545Z,4.53
2022-11-29T22:37:07.017Z,4.82
2022-11-29T22:39:36.576Z,5.43
2022-11-29T22:42:06.180Z,5.30
2022-11-29T22:44:35.626Z,5.03
2022-11-29T22:47:07.809Z,5.85
2022-11-29T22:49:37.422Z,5.72
2022-11-29T22:52:07.001Z,4.97
2022-11-29T22:54:36.584Z,5.18
2022-11-29T22:57:06.057Z,4.70
2022-11-29T22:59:35.512Z,5.65
2022-11-29T23:02:07.641Z,5.00
2022-11-29T23:04:37.218Z,5.18
2022-11-29T23:07:06.689Z,5.45
2022-11-29T23:09:36.162Z,5.80
2022-11-29T23:12:05.679Z,4.82
2022-11-29T23:14:35.114Z,5.68
2022-11-29T23:17:07.357Z,4.90
2022-11-29T23:19:36.812Z,5.05
2022-11-29T23:22:06.301Z,4.45
2022-11-29T23:24:35.813Z,4.57
2022-11-29T23:27:05.309Z,4.75
2022-11-29T23:29:34.790Z,5.47
2022-11-29T23:32:07.115Z,4.65
2022-11-29T23:34:36.961Z,4.45
2022-11-29T23:37:06.413Z,4.93
2022-11-29T23:39:35.919Z,4.72
2022-11-29T23:42:05.435Z,5.15
2022-11-29T23:44:34.911Z,4.57
2022-11-29T23:47:07.180Z,4.55
2022-11-29T23:49:39.881Z,5.03
2022-11-29T23:52:09.379Z,4.43
2022-11-29T23:54:38.835Z,4.20
2022-11-29T23:57:08.453Z,4.38
2022-11-29T23:59:37.958Z,4.05
